createdAt,value
2023-04-25T00:00:38.556Z,5.07
2023-04-25T00:03:10.568Z,5.73
2023-04-25T00:05:42.682Z,6.40
2023-04-25T00:08:13.786Z,5.50
2023-04-25T00:10:43.069Z,5.50
2023-04-25T00:13:23.553Z,5.97
2023-04-25T00:16:04.092Z,6.30
2023-04-25T00:18:36.352Z,5.40
2023-04-25T00:21:08.905Z,5.90
2023-04-25T00:23:44.614Z,5.97
2023-04-25T00:26:13.380Z,6.37
2023-04-25T00:29:00.339Z,5.70
2023-04-25T00:31:34.750Z,5.40
2023-04-25T00:34:14.213Z,5.70
2023-04-25T00:36:46.164Z,5.40
2023-04-25T00:39:24.098Z,6.17
2023-04-25T00:42:05.770Z,5.87
2023-04-25T00:44:40.710Z,6.20
2023-04-25T00:47:13.250Z,6.13
2023-04-25T00:49:50.344Z,5.93
2023-04-25T00:52:20.868Z,6.23
2023-04-25T00:55:00.726Z,5.90
2023-04-25T00:57:33.686Z,5.17
2023-04-25T01:00:10.914Z,4.57
2023-04-25T01:02:46.516Z,4.77
2023-04-25T01:05:16.575Z,5.17
2023-04-25T01:07:49.479Z,4.73
2023-04-25T01:10:34.127Z,4.47
2023-04-25T01:13:10.148Z,3.57
2023-04-25T01:15:46.053Z,3.87
2023-04-25T01:18:21.237Z,3.57
2023-04-25T01:20:53.978Z,3.50
2023-04-25T01:23:25.707Z,3.27
2023-04-25T01:26:01.989Z,4.13
2023-04-25T01:28:31.247Z,4.23
2023-04-25T01:31:06.025Z,4.40
2023-04-25T01:33:34.971Z,4.30
2023-04-25T01:36:08.751Z,4.03
2023-04-25T01:38:45.003Z,3.10
2023-04-25T01:41:25.010Z,4.00
2023-04-25T01:44:14.689Z,4.20
2023-04-25T01:46:45.938Z,3.90
2023-04-25T01:49:24.318Z,3.80
2023-04-25T01:51:59.599Z,3.57
2023-04-25T01:54:32.100Z,4.40
2023-04-25T01:57:05.219Z,3.53
2023-04-25T01:59:40.766Z,2.60
2023-04-25T02:02:30.162Z,2.73
2023-04-25T02:05:00.470Z,2.57
2023-04-25T02:07:38.085Z,2.00
2023-04-25T02:10:28.972Z,2.00
2023-04-25T02:13:22.712Z,2.10
2023-04-25T02:16:20.392Z,2.17
2023-04-25T02:19:00.636Z,2.20
2023-04-25T02:21:32.210Z,2.33
2023-04-25T02:24:08.667Z,2.20
2023-04-25T02:26:47.370Z,2.03
2023-04-25T02:29:19.893Z,2.20
2023-04-25T02:31:50.562Z,2.67
2023-04-25T02:34:25.467Z,2.50
2023-04-25T02:37:04.914Z,2.33
2023-04-25T02:39:40.976Z,2.50
2023-04-25T02:42:21.269Z,2.87
2023-04-25T02:44:54.621Z,2.87
2023-04-25T02:47:26.709Z,3.00
2023-04-25T02:50:00.658Z,3.10
2023-04-25T02:52:31.583Z,3.20
2023-04-25T02:55:31.326Z,3.20
2023-04-25T02:58:10.755Z,3.00
2023-04-25T03:01:05.599Z,2.77
2023-04-25T03:03:50.407Z,2.90
2023-04-25T03:06:33.030Z,2.83
2023-04-25T03:09:03.599Z,3.37
2023-04-25T03:11:49.367Z,3.30
2023-04-25T03:14:23.756Z,3.10
2023-04-25T03:16:58.119Z,3.07
2023-04-25T03:19:31.004Z,2.80
2023-04-25T03:22:10.122Z,3.10
2023-04-25T03:24:49.241Z,3.63
2023-04-25T03:27:30.180Z,3.80
2023-04-25T03:32:57.685Z,4.90
2023-04-25T03:35:29.585Z,5.00
2023-04-25T03:38:02.844Z,4.03
2023-04-25T03:40:40.675Z,4.60
2023-04-25T03:43:41.491Z,4.97
2023-04-25T03:46:23.751Z,4.57
2023-04-25T03:48:57.608Z,5.03
2023-04-25T03:51:39.840Z,5.07
2023-04-25T03:54:14.226Z,4.57
2023-04-25T03:59:30.740Z,5.17
2023-04-25T04:02:10.262Z,5.67
2023-04-25T04:04:47.542Z,4.60
2023-04-25T04:07:19.903Z,5.20
2023-04-25T04:09:57.896Z,5.73
2023-04-25T04:12:36.822Z,5.50
2023-04-25T04:15:08.392Z,5.17
2023-04-25T04:17:50.737Z,5.30
2023-04-25T04:20:23.220Z,5.57
2023-04-25T04:22:54.033Z,5.73
2023-04-25T04:25:33.491Z,6.47
2023-04-25T04:28:19.047Z,5.40
2023-04-25T04:31:07.483Z,7.07
2023-04-25T04:33:42.737Z,7.47
2023-04-25T04:36:20.995Z,6.53
2023-04-25T04:38:56.591Z,6.90
2023-04-25T04:41:38.729Z,7.70
2023-04-25T04:44:14.319Z,6.93
2023-04-25T04:47:19.044Z,6.77
2023-04-25T04:50:19.455Z,6.33
2023-04-25T04:53:41.498Z,7.20
2023-04-25T04:56:50.958Z,6.90
2023-04-25T04:59:56.530Z,6.20
2023-04-25T05:02:48.659Z,6.53
2023-04-25T05:05:54.077Z,6.93
2023-04-25T05:08:48.913Z,7.27
2023-04-25T05:11:41.464Z,8.97
2023-04-25T05:14:29.598Z,7.70
2023-04-25T05:17:15.372Z,7.23
2023-04-25T05:20:05.093Z,7.47
2023-04-25T05:23:19.908Z,7.47
2023-04-25T05:26:06.812Z,9.07
2023-04-25T05:29:02.659Z,7.67
2023-04-25T05:32:08.379Z,8.30
2023-04-25T05:34:47.281Z,8.00
2023-04-25T05:37:33.537Z,8.87
2023-04-25T05:40:31.524Z,9.60
2023-04-25T05:43:21.124Z,9.10
2023-04-25T05:46:01.361Z,9.70
2023-04-25T05:48:50.284Z,9.63
2023-04-25T05:51:47.327Z,10.93
2023-04-25T05:54:48.167Z,10.50
2023-04-25T05:57:24.127Z,9.20
2023-04-25T05:59:56.822Z,12.10
2023-04-25T06:02:51.110Z,10.40
2023-04-25T06:05:28.322Z,11.97
2023-04-25T06:08:00.483Z,11.60
2023-04-25T06:10:39.855Z,11.90
2023-04-25T06:13:12.854Z,12.70
2023-04-25T06:15:41.899Z,11.27
2023-04-25T06:18:14.556Z,10.67
2023-04-25T06:20:54.362Z,12.17
2023-04-25T06:23:25.167Z,11.27
2023-04-25T06:26:01.732Z,11.40
2023-04-25T06:28:38.100Z,11.80
2023-04-25T06:31:08.814Z,10.50
2023-04-25T06:33:43.488Z,9.60
2023-04-25T06:36:26.027Z,10.30
2023-04-25T06:39:05.987Z,8.43
2023-04-25T06:41:43.313Z,7.53
2023-04-25T06:44:41.026Z,7.67
2023-04-25T06:47:17.145Z,8.30
2023-04-25T06:49:58.141Z,7.80
2023-04-25T06:52:36.427Z,7.67
2023-04-25T06:55:11.583Z,8.00
2023-04-25T06:58:15.102Z,7.50
2023-04-25T07:01:10.394Z,7.37
2023-04-25T07:03:45.617Z,7.40
2023-04-25T07:06:26.740Z,9.03
2023-04-25T07:08:58.731Z,7.53
2023-04-25T07:11:29.590Z,7.17
2023-04-25T07:14:09.262Z,6.80
2023-04-25T07:16:47.243Z,7.13
2023-04-25T07:19:21.893Z,7.23
2023-04-25T07:22:00.645Z,6.70
2023-04-25T07:24:41.568Z,7.60
2023-04-25T07:27:25.522Z,6.90
2023-04-25T07:29:58.524Z,6.90
2023-04-25T07:32:35.107Z,5.90
2023-04-25T07:35:06.973Z,5.80
2023-04-25T07:37:38.151Z,5.80
2023-04-25T07:40:18.037Z,5.83
2023-04-25T07:42:56.090Z,5.63
2023-04-25T07:45:47.541Z,4.70
2023-04-25T07:48:37.259Z,5.30
2023-04-25T07:51:09.312Z,4.10
2023-04-25T07:53:44.290Z,4.63
2023-04-25T07:56:21.426Z,4.70
2023-04-25T07:58:55.129Z,4.50
2023-04-25T08:01:29.483Z,4.43
2023-04-25T08:04:12.067Z,4.03
2023-04-25T08:07:02.155Z,4.37
2023-04-25T08:09:40.082Z,3.23
2023-04-25T08:12:21.095Z,3.43
2023-04-25T08:14:54.318Z,4.47
2023-04-25T08:17:31.018Z,3.80
2023-04-25T08:20:10.270Z,3.33
2023-04-25T08:22:46.856Z,4.20
2023-04-25T08:25:28.329Z,3.87
2023-04-25T08:28:00.743Z,3.50
2023-04-25T08:30:34.034Z,3.43
2023-04-25T08:33:12.438Z,3.70
2023-04-25T08:36:03.885Z,3.00
2023-04-25T08:38:40.736Z,3.63
2023-04-25T08:41:14.849Z,5.77
2023-04-25T08:43:46.964Z,2.63
2023-04-25T08:46:28.552Z,3.30
2023-04-25T08:49:18.469Z,3.37
2023-04-25T08:51:56.674Z,4.00
2023-04-25T08:54:41.713Z,2.53
2023-04-25T08:57:14.579Z,2.80
2023-04-25T08:59:49.868Z,3.67
2023-04-25T09:02:32.361Z,3.10
2023-04-25T09:05:13.520Z,3.17
2023-04-25T09:07:59.079Z,3.70
2023-04-25T09:13:20.913Z,3.70
2023-04-25T09:16:23.192Z,3.30
2023-04-25T09:22:11.277Z,3.10
2023-04-25T09:24:59.354Z,2.83
2023-04-25T09:27:38.314Z,3.30
2023-04-25T09:30:38.012Z,3.20
2023-04-25T09:33:37.201Z,3.10
2023-04-25T09:36:31.489Z,3.53
2023-04-25T09:39:29.635Z,4.13
2023-04-25T09:42:28.232Z,3.37
2023-04-25T09:45:12.632Z,3.30
2023-04-25T09:48:09.249Z,2.97
2023-04-25T09:51:10.711Z,3.90
2023-04-25T09:54:04.558Z,3.43
2023-04-25T09:57:02.060Z,3.50
2023-04-25T09:59:40.570Z,3.90
2023-04-25T10:02:17.452Z,3.63
2023-04-25T10:05:09.715Z,3.73
2023-04-25T10:07:52.566Z,3.83
2023-04-25T10:10:32.072Z,3.50
2023-04-25T10:13:05.767Z,3.23
2023-04-25T10:16:10.213Z,3.43
2023-04-25T10:18:55.299Z,3.70
2023-04-25T10:21:28.779Z,4.07
2023-04-25T10:23:59.713Z,3.57
2023-04-25T10:26:36.182Z,3.80
2023-04-25T10:29:14.190Z,4.57
2023-04-25T10:31:49.110Z,4.10
2023-04-25T10:34:46.727Z,3.50
2023-04-25T10:37:21.236Z,4.00
2023-04-25T10:39:55.024Z,3.80
2023-04-25T10:42:31.501Z,2.90
2023-04-25T10:45:13.312Z,3.30
2023-04-25T10:47:49.362Z,4.27
2023-04-25T10:50:32.386Z,3.40
2023-04-25T10:53:20.107Z,2.97
2023-04-25T10:55:57.582Z,3.27
2023-04-25T10:58:28.564Z,3.63
2023-04-25T11:01:09.162Z,2.63
2023-04-25T11:03:54.310Z,2.67
2023-04-25T11:06:47.299Z,3.10
2023-04-25T11:09:21.209Z,3.13
2023-04-25T11:12:04.577Z,3.70
2023-04-25T11:14:44.399Z,3.47
2023-04-25T11:17:19.451Z,3.37
2023-04-25T11:19:56.845Z,3.40
2023-04-25T11:22:44.693Z,3.20
2023-04-25T11:25:16.321Z,3.67
2023-04-25T11:28:00.221Z,3.80
2023-04-25T11:30:39.221Z,3.40
2023-04-25T11:33:16.182Z,3.87
2023-04-25T11:35:51.497Z,3.50
2023-04-25T11:38:32.505Z,3.40
2023-04-25T11:41:07.822Z,3.73
2023-04-25T11:43:43.422Z,4.00
2023-04-25T11:46:28.134Z,3.63
2023-04-25T11:49:06.002Z,4.10
2023-04-25T11:51:43.013Z,4.40
2023-04-25T11:54:16.733Z,4.40
2023-04-25T11:56:53.479Z,3.97
2023-04-25T11:59:33.553Z,3.60
2023-04-25T12:02:10.958Z,3.93
2023-04-25T12:04:49.522Z,4.40
2023-04-25T12:07:25.578Z,4.13
2023-04-25T12:10:14.050Z,4.10
2023-04-25T12:12:48.204Z,3.40
2023-04-25T12:15:23.065Z,3.70
2023-04-25T12:17:57.561Z,4.00
2023-04-25T12:20:30.666Z,3.77
2023-04-25T12:23:01.843Z,4.10
2023-04-25T12:25:40.324Z,4.23
2023-04-25T12:28:38.933Z,4.50
2023-04-25T12:31:18.888Z,4.20
2023-04-25T12:33:49.665Z,4.87
2023-04-25T12:36:27.112Z,4.27
2023-04-25T12:38:58.095Z,4.77
2023-04-25T12:41:43.604Z,4.83
2023-04-25T12:44:15.201Z,4.10
2023-04-25T12:46:54.750Z,4.60
2023-04-25T12:49:26.761Z,5.00
2023-04-25T12:52:04.819Z,4.97
2023-04-25T12:54:39.038Z,4.43
2023-04-25T12:57:21.503Z,5.03
2023-04-25T12:59:56.694Z,4.80
2023-04-25T13:02:25.962Z,6.10
2023-04-25T13:04:59.686Z,5.50
2023-04-25T13:07:37.779Z,5.10
2023-04-25T13:10:16.548Z,5.43
2023-04-25T13:12:58.246Z,5.30
2023-04-25T13:15:34.762Z,5.00
2023-04-25T13:18:09.651Z,5.50
2023-04-25T13:20:40.816Z,5.10
2023-04-25T13:23:14.656Z,4.90
2023-04-25T13:25:45.457Z,4.40
2023-04-25T13:28:27.228Z,3.90
2023-04-25T13:31:02.008Z,4.80
2023-04-25T13:33:38.078Z,4.40
2023-04-25T13:36:10.444Z,4.40
2023-04-25T13:38:47.336Z,4.73
2023-04-25T13:41:22.102Z,4.80
2023-04-25T13:44:04.081Z,4.47
2023-04-25T13:49:17.068Z,3.90
2023-04-25T13:51:56.466Z,4.33
2023-04-25T13:54:29.962Z,4.57
2023-04-25T13:57:14.243Z,3.80
2023-04-25T13:59:49.383Z,3.50
2023-04-25T14:02:25.094Z,3.50
2023-04-25T14:04:56.265Z,4.10
2023-04-25T14:07:31.871Z,3.67
2023-04-25T14:10:05.678Z,3.33
2023-04-25T14:12:46.426Z,4.07
2023-04-25T14:15:24.964Z,4.27
2023-04-25T14:18:02.716Z,3.60
2023-04-25T14:20:35.956Z,4.00
2023-04-25T14:23:08.316Z,3.53
2023-04-25T14:25:47.939Z,4.10
2023-04-25T14:28:21.272Z,3.43
2023-04-25T14:30:57.669Z,3.60
2023-04-25T14:33:28.068Z,4.10
2023-04-25T14:36:00.794Z,3.83
2023-04-25T14:38:33.998Z,3.83
2023-04-25T14:41:08.306Z,3.53
2023-04-25T14:43:44.527Z,3.80
2023-04-25T14:46:19.698Z,3.20
2023-04-25T14:48:54.714Z,3.73
2023-04-25T14:51:24.428Z,3.80
2023-04-25T14:54:05.995Z,3.60
2023-04-25T14:56:38.952Z,4.00
2023-04-25T14:59:10.130Z,3.67
2023-04-25T15:01:50.645Z,3.67
2023-04-25T15:04:26.848Z,3.43
2023-04-25T15:07:00.926Z,3.20
2023-04-25T15:09:34.885Z,3.43
2023-04-25T15:12:12.007Z,3.20
2023-04-25T15:14:45.054Z,4.10
2023-04-25T15:17:15.780Z,2.80
2023-04-25T15:19:49.724Z,3.50
2023-04-25T15:22:20.661Z,3.50
2023-04-25T15:25:00.719Z,3.47
2023-04-25T15:27:34.104Z,3.20
2023-04-25T15:30:30.625Z,3.60
2023-04-25T15:33:17.668Z,3.60
2023-04-25T15:35:54.958Z,3.80
2023-04-25T15:38:34.342Z,3.87
2023-04-25T15:41:08.094Z,4.00
2023-04-25T15:43:43.784Z,3.70
2023-04-25T15:46:21.345Z,4.33
2023-04-25T15:49:01.578Z,3.67
2023-04-25T15:51:34.424Z,3.50
2023-04-25T15:54:08.757Z,3.50
2023-04-25T15:56:39.181Z,3.07
2023-04-25T15:59:10.287Z,3.30
2023-04-25T16:01:47.991Z,3.00
2023-04-25T16:04:40.311Z,3.37
2023-04-25T16:07:25.939Z,3.53
2023-04-25T16:10:07.787Z,3.60
2023-04-25T16:12:53.303Z,3.20
2023-04-25T16:15:35.759Z,3.70
2023-04-25T16:18:06.635Z,3.13
2023-04-25T16:20:54.406Z,3.00
2023-04-25T16:23:26.793Z,4.10
2023-04-25T16:26:06.282Z,4.23
2023-04-25T16:28:36.572Z,3.30
2023-04-25T16:31:14.824Z,3.87
2023-04-25T16:33:57.976Z,3.87
2023-04-25T16:36:43.165Z,3.60
2023-04-25T16:39:14.769Z,4.43
2023-04-25T16:41:55.300Z,3.90
2023-04-25T16:44:28.975Z,4.80
2023-04-25T16:47:11.614Z,4.13
2023-04-25T16:49:51.336Z,4.07
2023-04-25T16:52:31.225Z,4.30
2023-04-25T16:55:01.787Z,3.40
2023-04-25T16:57:36.696Z,3.40
2023-04-25T17:00:17.338Z,3.90
2023-04-25T17:02:55.455Z,3.57
2023-04-25T17:05:31.090Z,3.90
2023-04-25T17:08:03.121Z,3.60
2023-04-25T17:10:34.896Z,3.40
2023-04-25T17:13:09.137Z,4.03
2023-04-25T17:15:42.706Z,3.90
2023-04-25T17:18:19.307Z,4.40
2023-04-25T17:20:51.429Z,3.70
2023-04-25T17:23:39.926Z,3.53
2023-04-25T17:26:14.893Z,3.10
2023-04-25T17:28:55.405Z,3.70
2023-04-25T17:31:27.083Z,4.00
2023-04-25T17:34:01.270Z,3.30
2023-04-25T17:36:38.576Z,3.30
2023-04-25T17:39:24.660Z,3.47
2023-04-25T17:41:55.007Z,3.53
2023-04-25T17:44:36.745Z,3.60
2023-04-25T17:47:08.732Z,4.00
2023-04-25T17:49:44.111Z,3.50
2023-04-25T17:52:24.537Z,4.33
2023-04-25T17:55:15.523Z,3.73
2023-04-25T17:57:48.940Z,3.63
2023-04-25T18:00:33.026Z,4.30
2023-04-25T18:03:05.394Z,3.97
2023-04-25T18:05:37.321Z,3.67
2023-04-25T18:08:18.649Z,3.63
2023-04-25T18:10:53.708Z,4.23
2023-04-25T18:13:27.837Z,3.80
2023-04-25T18:15:59.284Z,4.17
2023-04-25T18:18:34.543Z,4.20
2023-04-25T18:21:14.586Z,4.10
2023-04-25T18:23:56.198Z,3.83
2023-04-25T18:26:37.505Z,3.50
2023-04-25T18:29:31.318Z,4.30
2023-04-25T18:32:07.786Z,4.17
2023-04-25T18:34:48.393Z,4.00
2023-04-25T18:37:26.168Z,4.27
2023-04-25T18:39:59.946Z,3.80
2023-04-25T18:42:41.226Z,4.57
2023-04-25T18:45:21.480Z,3.93
2023-04-25T18:47:50.016Z,4.07
2023-04-25T18:50:29.822Z,4.53
2023-04-25T18:53:03.134Z,5.10
2023-04-25T18:55:36.650Z,4.63
2023-04-25T18:58:21.658Z,5.17
2023-04-25T19:01:06.978Z,4.00
2023-04-25T19:03:41.489Z,3.50
2023-04-25T19:06:20.081Z,3.63
2023-04-25T19:08:53.498Z,4.00
2023-04-25T19:11:24.641Z,3.83
2023-04-25T19:13:59.054Z,4.07
2023-04-25T19:16:27.941Z,3.70
2023-04-25T19:19:00.121Z,4.57
2023-04-25T19:21:32.075Z,4.53
2023-04-25T19:24:07.565Z,3.90
2023-04-25T19:26:45.156Z,4.10
2023-04-25T19:29:19.736Z,4.10
2023-04-25T19:31:53.132Z,3.83
2023-04-25T19:34:36.142Z,3.90
2023-04-25T19:37:09.745Z,3.97
2023-04-25T19:39:43.958Z,3.80
2023-04-25T19:42:17.148Z,3.57
2023-04-25T19:44:56.399Z,3.23
2023-04-25T19:47:30.263Z,2.80
2023-04-25T19:50:03.920Z,3.27
2023-04-25T19:52:43.368Z,4.83
2023-04-25T19:55:15.052Z,3.90
2023-04-25T19:57:52.969Z,3.43
2023-04-25T20:00:33.803Z,3.63
2023-04-25T20:03:09.967Z,4.23
2023-04-25T20:05:48.708Z,4.60
2023-04-25T20:08:19.230Z,4.30
2023-04-25T20:10:49.969Z,3.97
2023-04-25T20:13:22.881Z,4.90
2023-04-25T20:16:08.398Z,4.07
2023-04-25T20:18:40.429Z,3.97
2023-04-25T20:21:13.768Z,4.40
2023-04-25T20:23:49.772Z,4.47
2023-04-25T20:26:24.588Z,4.20
2023-04-25T20:29:03.230Z,4.43
2023-04-25T20:31:40.897Z,4.43
2023-04-25T20:34:15.700Z,3.50
2023-04-25T20:36:55.917Z,4.37
2023-04-25T20:39:26.554Z,5.30
2023-04-25T20:42:08.689Z,5.00
2023-04-25T20:44:41.071Z,4.97
2023-04-25T20:47:17.322Z,6.67
2023-04-25T20:49:49.372Z,6.77
2023-04-25T20:52:21.465Z,5.20
2023-04-25T20:54:56.795Z,6.13
2023-04-25T20:57:39.153Z,6.43
2023-04-25T21:00:19.273Z,5.60
2023-04-25T21:03:04.000Z,5.60
2023-04-25T21:05:38.851Z,4.60
2023-04-25T21:08:20.851Z,5.97
2023-04-25T21:10:51.448Z,5.50
2023-04-25T21:13:33.496Z,5.03
2023-04-25T21:16:05.228Z,4.20
2023-04-25T21:18:43.902Z,4.87
2023-04-25T21:21:21.778Z,4.77
2023-04-25T21:24:02.110Z,4.80
2023-04-25T21:26:36.693Z,4.13
2023-04-25T21:29:14.000Z,4.77
2023-04-25T21:31:51.244Z,4.87
2023-04-25T21:34:34.259Z,4.30
2023-04-25T21:37:05.784Z,4.70
2023-04-25T21:39:39.864Z,5.20
2023-04-25T21:42:18.055Z,4.50
2023-04-25T21:44:51.744Z,4.77
2023-04-25T21:47:26.188Z,5.10
2023-04-25T21:50:04.362Z,4.40
2023-04-25T21:52:38.799Z,5.33
2023-04-25T21:55:14.262Z,6.00
2023-04-25T21:57:43.926Z,6.27
2023-04-25T22:00:21.999Z,5.93
2023-04-25T22:03:03.144Z,5.33
2023-04-25T22:05:42.554Z,5.30
2023-04-25T22:08:11.488Z,5.07
2023-04-25T22:10:49.585Z,4.60
2023-04-25T22:13:29.070Z,4.20
2023-04-25T22:16:02.886Z,4.43
2023-04-25T22:18:40.997Z,5.30
2023-04-25T22:21:31.468Z,4.87
2023-04-25T22:24:11.036Z,6.33
2023-04-25T22:26:49.450Z,6.83
2023-04-25T22:29:30.726Z,7.80
2023-04-25T22:32:05.428Z,6.47
2023-04-25T22:34:42.004Z,6.10
2023-04-25T22:37:24.156Z,5.55
2023-04-25T22:40:05.926Z,6.43
2023-04-25T22:42:48.281Z,7.15
2023-04-25T22:45:22.079Z,6.83
2023-04-25T22:47:55.370Z,5.60
2023-04-25T22:50:33.418Z,5.97
2023-04-25T22:53:12.588Z,6.27
2023-04-25T22:55:45.252Z,5.87
2023-04-25T22:58:18.008Z,5.10
2023-04-25T23:00:48.849Z,5.23
2023-04-25T23:03:17.408Z,5.10
2023-04-25T23:05:48.719Z,5.80
2023-04-25T23:08:27.228Z,6.05
2023-04-25T23:13:49.453Z,5.63
2023-04-25T23:16:22.331Z,6.03
2023-04-25T23:18:56.264Z,7.63
2023-04-25T23:21:31.839Z,9.80
2023-04-25T23:24:12.416Z,7.10
2023-04-25T23:26:47.937Z,7.95
2023-04-25T23:29:30.223Z,7.50
2023-04-25T23:32:03.981Z,7.03
2023-04-25T23:34:39.791Z,5.87
2023-04-25T23:37:12.511Z,6.60
2023-04-25T23:39:57.861Z,6.80
2023-04-25T23:42:29.615Z,5.43
2023-04-25T23:45:01.365Z,5.78
2023-04-25T23:47:36.711Z,5.07
2023-04-25T23:50:12.876Z,5.88
2023-04-25T23:52:47.437Z,6.00
2023-04-25T23:55:22.492Z,5.97
2023-04-25T23:57:58.216Z,6.05
